createdAt,value
2022-12-17T00:01:53.975Z,98262.13
2022-12-17T00:04:48.226Z,98267.00
2022-12-17T00:07:34.433Z,98274.16
2022-12-17T00:10:19.923Z,98240.84
2022-12-17T00:13:07.431Z,98273.09
2022-12-17T00:15:53.900Z,98274.72
2022-12-17T00:18:42.264Z,98284.91
2022-12-17T00:21:28.350Z,98288.25
2022-12-17T00:24:14.181Z,98284.72
2022-12-17T00:27:00.262Z,98291.88
2022-12-17T00:30:02.091Z,98291.94
2022-12-17T00:32:47.780Z,98302.88
2022-12-17T00:35:45.325Z,98302.53
2022-12-17T00:38:34.590Z,98301.91
2022-12-17T00:41:20.840Z,98307.34
2022-12-17T00:44:05.756Z,98307.41
2022-12-17T00:46:54.011Z,98317.38
2022-12-17T00:49:39.927Z,98312.28
2022-12-17T00:52:25.750Z,98315.53
2022-12-17T00:55:11.634Z,98321.94
2022-12-17T00:57:57.375Z,98322.88
2022-12-17T01:00:43.501Z,98322.16
2022-12-17T01:03:32.041Z,98333.75
2022-12-17T01:06:20.930Z,98331.31
2022-12-17T01:09:06.293Z,98330.75
2022-12-17T01:11:52.660Z,98332.34
2022-12-17T01:14:43.482Z,98353.09
2022-12-17T01:17:28.316Z,98349.81
2022-12-17T01:20:16.064Z,98358.09
2022-12-17T01:23:02.257Z,98365.66
2022-12-17T01:25:48.282Z,98356.50
2022-12-17T01:28:40.710Z,98359.63
2022-12-17T01:31:31.430Z,98374.66
2022-12-17T01:34:21.582Z,98368.53
2022-12-17T01:37:08.753Z,98389.38
2022-12-17T01:39:54.502Z,98396.47
2022-12-17T01:42:40.011Z,98392.81
2022-12-17T01:45:29.841Z,98388.47
2022-12-17T01:48:19.005Z,98395.63
2022-12-17T01:51:09.762Z,98384.09
2022-12-17T01:54:00.623Z,98382.38
2022-12-17T01:56:46.747Z,98403.63
2022-12-17T01:59:33.536Z,98396.25
2022-12-17T02:02:19.318Z,98399.59
2022-12-17T02:05:05.248Z,98394.25
2022-12-17T02:08:05.640Z,98407.75
2022-12-17T02:11:02.530Z,98417.69
2022-12-17T02:13:52.410Z,98419.16
2022-12-17T02:16:43.228Z,98407.81
2022-12-17T02:19:43.870Z,98409.88
2022-12-17T02:22:41.166Z,98406.44
2022-12-17T02:25:39.101Z,98417.63
2022-12-17T02:28:26.837Z,98424.63
2022-12-17T02:31:13.861Z,98431.16
2022-12-17T02:34:00.409Z,98431.19
2022-12-17T02:36:47.152Z,98433.97
2022-12-17T02:39:32.924Z,98439.13
2022-12-17T02:42:18.896Z,98429.16
2022-12-17T02:45:06.009Z,98441.13
2022-12-17T02:47:52.414Z,98446.66
2022-12-17T02:50:38.343Z,98451.81
2022-12-17T02:53:25.716Z,98450.94
2022-12-17T02:56:11.452Z,98445.00
2022-12-17T02:59:06.298Z,98444.78
2022-12-17T03:01:58.928Z,98458.94
2022-12-17T03:04:45.093Z,98454.78
2022-12-17T03:07:30.897Z,98459.28
2022-12-17T03:10:16.877Z,98467.28
2022-12-17T03:13:02.757Z,98453.03
2022-12-17T03:15:48.736Z,98476.50
2022-12-17T03:18:36.365Z,98482.28
2022-12-17T03:21:22.253Z,98486.59
2022-12-17T03:24:07.925Z,98490.50
2022-12-17T03:26:53.410Z,98499.00
2022-12-17T03:29:39.278Z,98499.31
2022-12-17T03:32:24.742Z,98504.59
2022-12-17T03:35:11.517Z,98505.66
2022-12-17T03:37:56.991Z,98497.63
2022-12-17T03:40:42.486Z,98502.69
2022-12-17T03:43:29.194Z,98510.22
2022-12-17T03:46:15.604Z,98514.56
2022-12-17T03:49:01.387Z,98499.59
2022-12-17T03:51:48.799Z,98511.94
2022-12-17T03:54:34.837Z,98506.94
2022-12-17T03:57:20.536Z,98506.47
2022-12-17T04:00:06.454Z,98510.34
2022-12-17T04:02:52.461Z,98505.84
2022-12-17T04:05:38.466Z,98510.34
2022-12-17T04:08:25.813Z,98514.75
2022-12-17T04:11:12.445Z,98525.50
2022-12-17T04:13:58.086Z,98524.34
2022-12-17T04:16:44.000Z,98532.69
2022-12-17T04:19:29.630Z,98540.31
2022-12-17T04:22:16.755Z,98552.69
2022-12-17T04:25:04.893Z,98558.56
2022-12-17T04:27:50.571Z,98563.88
2022-12-17T04:30:36.669Z,98557.91
2022-12-17T04:33:22.458Z,98556.00
2022-12-17T04:36:08.310Z,98565.97
2022-12-17T04:38:54.106Z,98564.78
2022-12-17T04:41:41.327Z,98567.63
2022-12-17T04:44:27.337Z,98580.63
2022-12-17T04:47:12.985Z,98568.13
2022-12-17T04:49:58.576Z,98565.34
2022-12-17T04:52:45.166Z,98568.81
2022-12-17T04:55:31.852Z,98569.78
2022-12-17T04:58:22.529Z,98574.44
2022-12-17T05:01:10.324Z,98570.50
2022-12-17T05:03:56.048Z,98589.31
2022-12-17T05:06:42.656Z,98587.72
2022-12-17T05:09:28.549Z,98562.75
2022-12-17T05:12:14.659Z,98590.78
2022-12-17T05:15:02.339Z,98589.59
2022-12-17T05:17:48.016Z,98606.09
2022-12-17T05:20:34.100Z,98613.94
2022-12-17T05:23:24.483Z,98620.75
2022-12-17T05:26:21.533Z,98622.91
2022-12-17T05:29:12.500Z,98630.91
2022-12-17T05:32:02.825Z,98632.44
2022-12-17T05:34:49.109Z,98640.72
2022-12-17T05:37:35.316Z,98640.53
2022-12-17T05:40:26.811Z,98642.44
2022-12-17T05:43:16.386Z,98634.34
2022-12-17T05:46:03.483Z,98637.50
2022-12-17T05:48:52.418Z,98639.50
2022-12-17T05:51:39.078Z,98643.75
2022-12-17T05:54:25.573Z,98637.38
2022-12-17T05:57:12.129Z,98646.25
2022-12-17T05:59:58.226Z,98656.72
2022-12-17T06:02:45.093Z,98656.72
2022-12-17T06:05:33.467Z,98655.03
2022-12-17T06:08:24.569Z,98667.41
2022-12-17T06:11:10.351Z,98668.66
2022-12-17T06:13:56.113Z,98663.56
2022-12-17T06:16:41.841Z,98682.72
2022-12-17T06:19:28.286Z,98682.72
2022-12-17T06:22:15.609Z,98688.06
2022-12-17T06:25:01.265Z,98683.34
2022-12-17T06:27:48.515Z,98686.84
2022-12-17T06:30:34.585Z,98690.06
2022-12-17T06:33:24.776Z,98691.50
2022-12-17T06:36:15.438Z,98693.53
2022-12-17T06:39:05.206Z,98704.00
2022-12-17T06:41:51.146Z,98713.25
2022-12-17T06:44:38.239Z,98727.19
2022-12-17T06:47:24.046Z,98723.78
2022-12-17T06:50:09.891Z,98731.41
2022-12-17T06:52:56.087Z,98733.88
2022-12-17T06:55:43.997Z,98734.75
2022-12-17T06:58:29.681Z,98739.31
2022-12-17T07:01:15.382Z,98741.16
2022-12-17T07:04:01.260Z,98737.44
2022-12-17T07:06:47.125Z,98749.88
2022-12-17T07:09:32.813Z,98754.72
2022-12-17T07:12:29.889Z,98765.25
2022-12-17T07:15:15.667Z,98770.91
2022-12-17T07:18:01.426Z,98775.22
2022-12-17T07:20:47.089Z,98774.16
2022-12-17T07:23:33.936Z,98784.00
2022-12-17T07:26:20.280Z,98775.94
2022-12-17T07:29:08.775Z,98789.00
2022-12-17T07:31:54.471Z,98801.84
2022-12-17T07:34:40.275Z,98801.44
2022-12-17T07:37:30.365Z,98801.06
2022-12-17T07:40:15.811Z,98809.50
2022-12-17T07:43:01.234Z,98817.44
2022-12-17T07:45:48.833Z,98818.63
2022-12-17T07:48:34.531Z,98815.19
2022-12-17T07:51:20.493Z,98814.16
2022-12-17T07:54:06.884Z,98813.50
2022-12-17T07:56:53.050Z,98830.28
2022-12-17T07:59:39.351Z,98818.19
2022-12-17T08:02:29.246Z,98825.84
2022-12-17T08:05:15.506Z,98830.28
2022-12-17T08:08:01.710Z,98830.06
2022-12-17T08:10:47.945Z,98829.22
2022-12-17T08:13:33.853Z,98833.88
2022-12-17T08:16:19.822Z,98834.84
2022-12-17T08:19:06.906Z,98841.94
2022-12-17T08:21:52.350Z,98839.06
2022-12-17T08:24:38.015Z,98847.59
2022-12-17T08:27:24.139Z,98855.38
2022-12-17T08:30:09.818Z,98854.78
2022-12-17T08:32:55.703Z,98860.63
2022-12-17T08:35:42.820Z,98870.41
2022-12-17T08:38:28.338Z,98856.44
2022-12-17T08:41:13.938Z,98871.72
2022-12-17T08:43:59.607Z,98864.34
2022-12-17T08:46:45.193Z,98872.22
2022-12-17T08:49:30.743Z,98874.09
2022-12-17T08:52:19.755Z,98867.09
2022-12-17T08:55:06.311Z,98863.34
2022-12-17T08:58:06.827Z,98870.94
2022-12-17T09:00:52.315Z,98867.78
2022-12-17T09:03:38.592Z,98870.53
2022-12-17T09:06:25.028Z,98871.28
2022-12-17T09:09:12.315Z,98881.69
2022-12-17T09:11:57.882Z,98879.81
2022-12-17T09:14:43.494Z,98894.13
2022-12-17T09:17:29.207Z,98900.47
2022-12-17T09:20:14.737Z,98907.47
2022-12-17T09:23:00.838Z,98907.75
2022-12-17T09:25:57.927Z,98909.34
2022-12-17T09:28:43.977Z,98916.63
2022-12-17T09:31:33.911Z,98897.31
2022-12-17T09:34:31.329Z,98913.34
2022-12-17T09:37:17.311Z,98915.41
2022-12-17T09:40:03.165Z,98907.81
2022-12-17T09:42:59.802Z,98923.69
2022-12-17T09:45:47.794Z,98917.91
2022-12-17T09:48:41.979Z,98923.94
2022-12-17T09:51:40.858Z,98913.78
2022-12-17T09:54:33.663Z,98919.66
2022-12-17T09:57:20.471Z,98921.09
2022-12-17T10:00:07.478Z,98915.06
2022-12-17T10:02:53.904Z,98921.03
2022-12-17T10:05:44.106Z,98926.28
2022-12-17T10:08:33.392Z,98923.72
2022-12-17T10:11:34.496Z,98921.84
2022-12-17T10:14:21.956Z,98924.69
2022-12-17T10:17:12.032Z,98924.03
2022-12-17T10:20:00.532Z,98924.75
2022-12-17T10:22:46.522Z,98930.00
2022-12-17T10:25:34.656Z,98928.50
2022-12-17T10:28:21.910Z,98930.94
2022-12-17T10:31:07.780Z,98922.00
2022-12-17T10:33:58.935Z,98929.69
2022-12-17T10:36:47.438Z,98931.13
2022-12-17T10:39:36.045Z,98928.94
2022-12-17T10:42:21.949Z,98930.06
2022-12-17T10:45:08.126Z,98928.41
2022-12-17T10:47:53.795Z,98933.94
2022-12-17T10:50:43.081Z,98928.47
2022-12-17T10:53:39.750Z,98937.97
2022-12-17T10:56:26.802Z,98935.28
2022-12-17T10:59:14.331Z,98941.09
2022-12-17T11:02:09.690Z,98929.34
2022-12-17T11:04:58.212Z,98950.56
2022-12-17T11:07:50.439Z,98926.31
2022-12-17T11:10:38.931Z,98950.56
2022-12-17T11:13:29.913Z,98935.22
2022-12-17T11:16:17.939Z,98935.84
2022-12-17T11:19:14.083Z,98936.16
2022-12-17T11:22:02.953Z,98940.53
2022-12-17T11:24:57.035Z,98938.44
2022-12-17T11:27:46.549Z,98945.41
2022-12-17T11:30:33.377Z,98932.84
2022-12-17T11:33:32.197Z,98938.34
2022-12-17T11:36:32.551Z,98945.38
2022-12-17T11:39:28.094Z,98943.06
2022-12-17T11:42:23.603Z,98934.41
2022-12-17T11:45:15.357Z,98929.47
2022-12-17T11:48:20.485Z,98932.56
2022-12-17T11:51:12.734Z,98930.25
2022-12-17T11:54:10.464Z,98927.28
2022-12-17T11:57:00.081Z,98938.88
2022-12-17T11:59:55.052Z,98934.66
2022-12-17T12:03:10.603Z,98927.94
2022-12-17T12:06:05.782Z,98933.16
2022-12-17T12:08:56.310Z,98939.31
2022-12-17T12:11:53.761Z,98938.16
2022-12-17T12:14:52.638Z,98917.16
2022-12-17T12:17:50.638Z,98923.53
2022-12-17T12:20:53.412Z,98941.34
2022-12-17T12:24:00.895Z,98943.47
2022-12-17T12:26:52.432Z,98940.66
2022-12-17T12:29:47.599Z,98945.41
2022-12-17T12:32:40.562Z,98943.75
2022-12-17T12:35:33.963Z,98928.63
2022-12-17T12:38:20.933Z,98929.97
2022-12-17T12:41:15.619Z,98942.72
2022-12-17T12:44:09.174Z,98945.09
2022-12-17T12:47:03.649Z,98938.94
2022-12-17T12:49:54.233Z,98945.97
2022-12-17T12:52:43.480Z,98937.56
2022-12-17T12:55:29.726Z,98944.31
2022-12-17T12:58:18.023Z,98946.88
2022-12-17T13:01:21.400Z,98955.38
2022-12-17T13:04:11.994Z,98950.69
2022-12-17T13:09:35.090Z,98952.81
2022-12-17T13:12:19.793Z,98949.88
2022-12-17T13:14:55.165Z,98955.19
2022-12-17T13:17:34.068Z,98950.69
2022-12-17T13:20:23.261Z,98960.34
2022-12-17T13:22:55.964Z,98953.91
2022-12-17T13:25:26.545Z,98967.13
2022-12-17T13:27:55.018Z,98962.09
2022-12-17T13:30:32.562Z,98969.56
2022-12-17T13:33:23.211Z,98969.69
2022-12-17T13:36:00.442Z,98973.06
2022-12-17T13:38:40.495Z,98968.41
2022-12-17T13:41:12.590Z,98967.75
2022-12-17T13:43:46.571Z,98975.66
2022-12-17T13:46:23.363Z,98979.03
2022-12-17T13:48:59.898Z,98994.81
2022-12-17T13:51:31.037Z,98982.31
2022-12-17T13:54:03.445Z,98979.75
2022-12-17T13:56:33.999Z,98992.25
2022-12-17T13:59:09.056Z,98998.91
2022-12-17T14:01:46.637Z,98990.22
2022-12-17T14:04:22.883Z,99005.31
2022-12-17T14:06:52.935Z,99009.56
2022-12-17T14:09:25.237Z,99003.31
2022-12-17T14:12:11.018Z,99009.28
2022-12-17T14:14:41.441Z,99008.19
2022-12-17T14:17:19.800Z,99017.31
2022-12-17T14:19:50.265Z,99020.38
2022-12-17T14:22:21.734Z,99023.13
2022-12-17T14:24:51.947Z,99027.88
2022-12-17T14:27:26.683Z,99032.03
2022-12-17T14:29:56.795Z,99041.22
2022-12-17T14:32:27.534Z,99031.31
2022-12-17T14:35:00.383Z,99031.16
2022-12-17T14:37:30.462Z,99039.00
2022-12-17T14:40:05.209Z,99023.47
2022-12-17T14:42:39.025Z,99035.19
2022-12-17T14:45:08.559Z,99030.72
2022-12-17T14:47:38.898Z,99035.63
2022-12-17T14:50:25.342Z,99040.34
2022-12-17T14:52:55.712Z,99037.53
2022-12-17T14:55:38.792Z,99046.53
2022-12-17T14:58:26.343Z,99033.38
2022-12-17T15:01:00.766Z,99034.31
2022-12-17T15:03:31.566Z,99037.59
2022-12-17T15:06:04.028Z,99043.06
2022-12-17T15:08:39.159Z,99037.19
2022-12-17T15:11:12.111Z,99034.47
2022-12-17T15:13:41.714Z,99039.81
2022-12-17T15:16:10.914Z,99042.19
2022-12-17T15:18:40.801Z,99051.31
2022-12-17T15:21:13.222Z,99052.53
2022-12-17T15:23:45.852Z,99050.50
2022-12-17T15:26:16.427Z,99066.19
2022-12-17T15:28:46.507Z,99079.44
2022-12-17T15:31:19.605Z,99071.56
2022-12-17T15:33:51.724Z,99068.97
2022-12-17T15:36:21.223Z,99060.19
2022-12-17T15:38:49.600Z,99082.69
2022-12-17T15:41:38.009Z,99078.13
2022-12-17T15:44:06.680Z,99080.63
2022-12-17T15:46:35.205Z,99078.28
2022-12-17T15:49:04.206Z,99077.66
2022-12-17T15:51:32.950Z,99073.56
2022-12-17T15:54:01.666Z,99070.28
2022-12-17T15:56:31.486Z,99061.56
2022-12-17T15:59:00.993Z,99054.75
2022-12-17T16:01:29.490Z,99066.88
2022-12-17T16:03:59.528Z,99055.22
2022-12-17T16:06:28.286Z,99070.16
2022-12-17T16:08:57.233Z,99073.84
2022-12-17T16:11:25.898Z,99070.25
2022-12-17T16:13:58.184Z,99069.66
2022-12-17T16:16:27.738Z,99075.97
2022-12-17T16:18:57.098Z,99069.69
2022-12-17T16:21:26.100Z,99079.88
2022-12-17T16:23:54.856Z,99064.00
2022-12-17T16:26:23.679Z,99076.06
2022-12-17T16:28:52.380Z,99075.75
2022-12-17T16:31:24.481Z,99054.81
2022-12-17T16:33:55.087Z,99077.13
2022-12-17T16:36:26.327Z,99091.06
2022-12-17T16:38:57.991Z,99078.94
2022-12-17T16:41:26.788Z,99088.78
2022-12-17T16:43:55.873Z,99092.09
2022-12-17T16:46:31.541Z,99088.78
2022-12-17T16:49:04.782Z,99091.25
2022-12-17T16:51:34.468Z,99092.84
2022-12-17T16:54:08.657Z,99090.03
2022-12-17T16:56:40.413Z,99088.63
2022-12-17T16:59:10.423Z,99093.97
2022-12-17T17:01:42.919Z,99103.97
2022-12-17T17:04:11.622Z,99102.88
2022-12-17T17:06:41.734Z,99104.22
2022-12-17T17:09:10.635Z,99101.41
2022-12-17T17:11:39.514Z,99115.56
2022-12-17T17:14:09.722Z,99107.28
2022-12-17T17:16:40.537Z,99109.19
2022-12-17T17:19:09.186Z,99110.97
2022-12-17T17:21:39.322Z,99109.34
2022-12-17T17:24:18.415Z,99113.59
2022-12-17T17:26:47.113Z,99121.22
2022-12-17T17:29:16.603Z,99121.97
2022-12-17T17:34:38.452Z,99124.19
2022-12-17T17:37:07.047Z,99130.59
2022-12-17T17:39:36.713Z,99121.41
2022-12-17T17:42:05.380Z,99139.53
2022-12-17T17:44:34.058Z,99147.34
2022-12-17T17:47:07.082Z,99148.59
2022-12-17T17:49:35.587Z,99153.59
2022-12-17T17:52:12.210Z,99161.59
2022-12-17T17:54:41.113Z,99161.78
2022-12-17T17:57:13.984Z,99160.81
2022-12-17T17:59:44.364Z,99186.78
2022-12-17T18:02:14.218Z,99170.44
2022-12-17T18:04:44.839Z,99168.91
2022-12-17T18:07:30.558Z,99160.91
2022-12-17T18:10:00.269Z,99169.31
2022-12-17T18:12:43.396Z,99173.50
2022-12-17T18:15:15.725Z,99180.25
2022-12-17T18:17:47.893Z,99179.97
2022-12-17T18:20:19.022Z,99185.81
2022-12-17T18:22:50.821Z,99193.31
2022-12-17T18:25:20.439Z,99194.00
2022-12-17T18:27:50.033Z,99185.88
2022-12-17T18:30:20.973Z,99179.88
2022-12-17T18:32:51.407Z,99184.13
2022-12-17T18:35:21.875Z,99180.47
2022-12-17T18:37:51.637Z,99188.34
2022-12-17T18:40:21.052Z,99180.25
2022-12-17T18:43:07.265Z,99193.13
2022-12-17T18:45:38.540Z,99184.47
2022-12-17T18:48:10.962Z,99188.88
2022-12-17T18:50:39.370Z,99198.09
2022-12-17T18:53:07.964Z,99197.75
2022-12-17T18:55:40.730Z,99208.28
2022-12-17T18:58:10.537Z,99202.44
2022-12-17T19:00:40.037Z,99200.13
2022-12-17T19:03:10.769Z,99201.03
2022-12-17T19:05:45.854Z,99205.16
2022-12-17T19:08:15.636Z,99209.38
2022-12-17T19:10:44.642Z,99214.00
2022-12-17T19:13:14.064Z,99209.63
2022-12-17T19:15:43.693Z,99222.00
2022-12-17T19:18:15.209Z,99220.25
2022-12-17T19:20:43.811Z,99217.09
2022-12-17T19:23:15.024Z,99215.13
2022-12-17T19:25:43.548Z,99215.06
2022-12-17T19:28:12.718Z,99225.56
2022-12-17T19:30:42.494Z,99226.84
2022-12-17T19:33:12.759Z,99226.28
2022-12-17T19:35:41.580Z,99230.88
2022-12-17T19:38:09.978Z,99235.38
2022-12-17T19:40:39.277Z,99226.41
2022-12-17T19:43:08.664Z,99241.19
2022-12-17T19:45:38.081Z,99249.63
2022-12-17T19:48:06.767Z,99244.47
2022-12-17T19:50:37.930Z,99248.19
2022-12-17T19:53:06.735Z,99242.78
2022-12-17T19:55:35.376Z,99234.53
2022-12-17T19:58:05.242Z,99246.81
2022-12-17T20:00:36.372Z,99251.75
2022-12-17T20:03:05.098Z,99243.34
2022-12-17T20:05:33.651Z,99260.03
2022-12-17T20:08:04.808Z,99254.97
2022-12-17T20:10:34.823Z,99238.53
2022-12-17T20:13:03.301Z,99235.31
2022-12-17T20:15:31.766Z,99242.53
2022-12-17T20:18:00.469Z,99240.50
2022-12-17T20:20:31.401Z,99237.25
2022-12-17T20:23:00.194Z,99241.03
2022-12-17T20:25:30.127Z,99235.53
2022-12-17T20:27:58.916Z,99240.25
2022-12-17T20:30:27.590Z,99239.63
2022-12-17T20:32:56.737Z,99240.38
2022-12-17T20:35:27.469Z,99221.16
2022-12-17T20:37:58.292Z,99237.72
2022-12-17T20:40:27.465Z,99236.38
2022-12-17T20:42:58.100Z,99235.94
2022-12-17T20:45:26.968Z,99238.28
2022-12-17T20:47:55.675Z,99224.63
2022-12-17T20:50:25.183Z,99238.38
2022-12-17T20:52:54.180Z,99241.53
2022-12-17T20:55:29.349Z,99236.28
2022-12-17T20:58:01.930Z,99248.88
2022-12-17T21:00:31.665Z,99248.66
2022-12-17T21:03:01.106Z,99245.63
2022-12-17T21:05:31.854Z,99254.28
2022-12-17T21:08:00.384Z,99250.38
2022-12-17T21:10:28.860Z,99252.09
2022-12-17T21:13:15.011Z,99259.72
2022-12-17T21:15:50.157Z,99254.22
2022-12-17T21:18:18.689Z,99240.81
2022-12-17T21:20:56.547Z,99250.31
2022-12-17T21:23:25.269Z,99253.56
2022-12-17T21:26:01.697Z,99266.41
2022-12-17T21:28:31.918Z,99267.72
2022-12-17T21:31:02.561Z,99251.88
2022-12-17T21:33:31.656Z,99275.44
2022-12-17T21:36:07.481Z,99281.19
2022-12-17T21:38:37.233Z,99281.19
2022-12-17T21:41:08.022Z,99295.44
2022-12-17T21:43:37.208Z,99291.38
2022-12-17T21:46:07.743Z,99300.72
2022-12-17T21:48:41.599Z,99297.69
2022-12-17T21:51:13.259Z,99310.88
2022-12-17T21:53:43.903Z,99304.50
2022-12-17T21:56:15.455Z,99314.94
2022-12-17T21:58:45.230Z,99320.06
2022-12-17T22:01:19.248Z,99312.28
2022-12-17T22:03:53.652Z,99323.09
2022-12-17T22:06:24.927Z,99321.22
2022-12-17T22:09:01.828Z,99319.56
2022-12-17T22:11:39.272Z,99328.69
2022-12-17T22:14:09.436Z,99319.75
2022-12-17T22:16:43.405Z,99309.09
2022-12-17T22:19:14.956Z,99329.94
2022-12-17T22:21:47.119Z,99329.00
2022-12-17T22:24:16.731Z,99332.31
2022-12-17T22:26:45.791Z,99307.50
2022-12-17T22:29:34.537Z,99335.19
2022-12-17T22:32:23.137Z,99325.09
2022-12-17T22:36:02.755Z,99318.00
2022-12-17T22:42:12.173Z,99333.09
2022-12-17T22:44:39.098Z,99338.88
2022-12-17T22:44:51.294Z,99340.31
2022-12-17T22:46:19.464Z,99341.84
2022-12-17T22:48:49.374Z,99311.16
2022-12-17T22:51:22.597Z,99335.81
2022-12-17T22:54:03.058Z,99349.25
2022-12-17T22:57:03.303Z,99341.91
2022-12-17T22:59:21.346Z,99339.16
2022-12-17T23:01:50.284Z,99351.38
2022-12-17T23:04:20.146Z,99337.69
2022-12-17T23:06:48.864Z,99344.19
2022-12-17T23:09:20.561Z,99336.69
2022-12-17T23:11:50.404Z,99321.63
2022-12-17T23:14:19.322Z,99344.91
2022-12-17T23:16:48.254Z,99330.47
2022-12-17T23:19:17.462Z,99332.88
2022-12-17T23:21:47.445Z,99319.13
2022-12-17T23:24:15.825Z,99323.69
2022-12-17T23:26:44.413Z,99317.16
2022-12-17T23:29:19.341Z,99313.31
2022-12-17T23:31:48.858Z,99316.06
2022-12-17T23:34:17.902Z,99314.38
2022-12-17T23:36:47.837Z,99335.19
2022-12-17T23:39:17.691Z,99336.41
2022-12-17T23:41:46.075Z,99330.03
2022-12-17T23:44:14.666Z,99318.91
2022-12-17T23:46:43.442Z,99327.28
2022-12-17T23:49:11.956Z,99330.19
2022-12-17T23:51:40.683Z,99344.13
2022-12-17T23:54:10.507Z,99343.13
2022-12-17T23:56:39.606Z,99346.09
2022-12-17T23:59:08.175Z,99352.28
